sensor_id;sensor_type;location;lat;lon;timestamp;P1;durP1;ratioP1;P2;durP2;ratioP2
75379;SDS011;65641;44.714;37.756;2023-07-31T00:00:35;1.63;;;1.17;;
75379;SDS011;65641;44.714;37.756;2023-07-31T00:01:39;2.00;;;1.30;;
75379;SDS011;65641;44.714;37.756;2023-07-31T00:02:42;2.38;;;1.52;;
75379;SDS011;65641;44.714;37.756;2023-07-31T00:03:46;1.90;;;1.42;;
75379;SDS011;65641;44.714;37.756;2023-07-31T00:04:50;1.55;;;1.30;;
75379;SDS011;65641;44.714;37.756;2023-07-31T00:05:53;2.03;;;1.17;;
75379;SDS011;65641;44.714;37.756;2023-07-31T00:06:56;3.03;;;1.33;;
75379;SDS011;65641;44.714;37.756;2023-07-31T00:08:00;1.55;;;1.00;;
75379;SDS011;65641;44.714;37.756;2023-07-31T00:09:03;2.05;;;1.50;;
75379;SDS011;65641;44.714;37.756;2023-07-31T00:10:07;2.00;;;1.30;;
75379;SDS011;65641;44.714;37.756;2023-07-31T00:11:11;2.38;;;1.23;;
75379;SDS011;65641;44.714;37.756;2023-07-31T00:12:15;1.70;;;1.30;;
75379;SDS011;65641;44.714;37.756;2023-07-31T00:13:18;2.05;;;1.50;;
75379;SDS011;65641;44.714;37.756;2023-07-31T00:14:22;2.00;;;1.45;;
75379;SDS011;65641;44.714;37.756;2023-07-31T00:15:25;2.80;;;1.63;;
75379;SDS011;65641;44.714;37.756;2023-07-31T00:16:29;2.15;;;1.40;;
75379;SDS011;65641;44.714;37.756;2023-07-31T00:17:33;1.83;;;1.25;;
75379;SDS011;65641;44.714;37.756;2023-07-31T00:18:37;2.00;;;1.30;;
75379;SDS011;65641;44.714;37.756;2023-07-31T00:19:40;2.05;;;1.63;;
75379;SDS011;65641;44.714;37.756;2023-07-31T00:20:44;2.25;;;1.27;;
75379;SDS011;65641;44.714;37.756;2023-07-31T00:21:47;3.03;;;1.73;;
75379;SDS011;65641;44.714;37.756;2023-07-31T00:22:51;1.42;;;1.08;;
75379;SDS011;65641;44.714;37.756;2023-07-31T00:23:54;1.98;;;1.38;;
75379;SDS011;65641;44.714;37.756;2023-07-31T00:24:57;2.47;;;1.10;;
75379;SDS011;65641;44.714;37.756;2023-07-31T00:26:02;2.28;;;1.40;;
75379;SDS011;65641;44.714;37.756;2023-07-31T00:27:06;2.33;;;1.45;;
75379;SDS011;65641;44.714;37.756;2023-07-31T00:28:09;1.95;;;1.40;;
75379;SDS011;65641;44.714;37.756;2023-07-31T00:29:14;1.95;;;1.17;;
75379;SDS011;65641;44.714;37.756;2023-07-31T00:30:17;1.70;;;1.08;;
75379;SDS011;65641;44.714;37.756;2023-07-31T00:31:21;2.15;;;1.50;;
75379;SDS011;65641;44.714;37.756;2023-07-31T00:32:24;2.15;;;1.33;;
75379;SDS011;65641;44.714;37.756;2023-07-31T00:33:28;2.67;;;1.70;;
75379;SDS011;65641;44.714;37.756;2023-07-31T00:34:31;2.65;;;1.50;;
75379;SDS011;65641;44.714;37.756;2023-07-31T00:35:35;1.52;;;1.10;;
75379;SDS011;65641;44.714;37.756;2023-07-31T00:36:38;3.20;;;1.17;;
75379;SDS011;65641;44.714;37.756;2023-07-31T00:37:42;2.08;;;1.50;;
75379;SDS011;65641;44.714;37.756;2023-07-31T00:38:47;2.35;;;1.33;;
75379;SDS011;65641;44.714;37.756;2023-07-31T00:39:50;3.17;;;2.10;;
75379;SDS011;65641;44.714;37.756;2023-07-31T00:40:54;1.95;;;1.23;;
75379;SDS011;65641;44.714;37.756;2023-07-31T00:41:57;2.30;;;1.73;;
75379;SDS011;65641;44.714;37.756;2023-07-31T00:43:00;1.67;;;1.50;;
75379;SDS011;65641;44.714;37.756;2023-07-31T00:44:05;2.20;;;1.50;;
75379;SDS011;65641;44.714;37.756;2023-07-31T00:45:08;2.35;;;1.40;;
75379;SDS011;65641;44.714;37.756;2023-07-31T00:46:12;2.03;;;1.45;;
75379;SDS011;65641;44.714;37.756;2023-07-31T00:47:16;2.80;;;1.33;;
75379;SDS011;65641;44.714;37.756;2023-07-31T00:48:20;1.80;;;1.23;;
75379;SDS011;65641;44.714;37.756;2023-07-31T00:49:23;2.38;;;1.27;;
75379;SDS011;65641;44.714;37.756;2023-07-31T00:50:27;2.92;;;1.38;;
75379;SDS011;65641;44.714;37.756;2023-07-31T00:51:33;2.30;;;1.30;;
75379;SDS011;65641;44.714;37.756;2023-07-31T00:52:37;1.90;;;1.40;;
75379;SDS011;65641;44.714;37.756;2023-07-31T00:53:40;2.60;;;1.85;;
75379;SDS011;65641;44.714;37.756;2023-07-31T00:54:46;1.80;;;1.42;;
75379;SDS011;65641;44.714;37.756;2023-07-31T00:55:50;2.40;;;1.85;;
75379;SDS011;65641;44.714;37.756;2023-07-31T00:56:55;2.25;;;1.20;;
75379;SDS011;65641;44.714;37.756;2023-07-31T00:57:59;2.25;;;1.50;;
75379;SDS011;65641;44.714;37.756;2023-07-31T00:59:03;2.28;;;1.25;;
75379;SDS011;65641;44.714;37.756;2023-07-31T01:00:08;1.90;;;1.45;;
75379;SDS011;65641;44.714;37.756;2023-07-31T01:01:12;1.65;;;1.33;;
75379;SDS011;65641;44.714;37.756;2023-07-31T01:02:16;2.13;;;1.42;;
75379;SDS011;65641;44.714;37.756;2023-07-31T01:03:19;2.00;;;1.55;;
75379;SDS011;65641;44.714;37.756;2023-07-31T01:04:23;2.50;;;1.48;;
75379;SDS011;65641;44.714;37.756;2023-07-31T01:05:33;2.47;;;1.55;;
75379;SDS011;65641;44.714;37.756;2023-07-31T01:06:52;2.08;;;1.58;;
75379;SDS011;65641;44.714;37.756;2023-07-31T01:08:18;2.05;;;1.73;;
75379;SDS011;65641;44.714;37.756;2023-07-31T01:10:44;2.70;;;1.40;;
75379;SDS011;65641;44.714;37.756;2023-07-31T01:11:56;2.30;;;1.60;;
75379;SDS011;65641;44.714;37.756;2023-07-31T01:13:03;2.30;;;1.50;;
75379;SDS011;65641;44.714;37.756;2023-07-31T01:14:07;2.13;;;1.90;;
75379;SDS011;65641;44.714;37.756;2023-07-31T01:15:11;1.98;;;1.55;;
75379;SDS011;65641;44.714;37.756;2023-07-31T01:16:15;2.22;;;1.60;;
75379;SDS011;65641;44.714;37.756;2023-07-31T01:17:18;2.10;;;1.55;;
75379;SDS011;65641;44.714;37.756;2023-07-31T01:18:22;2.20;;;1.40;;
75379;SDS011;65641;44.714;37.756;2023-07-31T01:19:26;2.40;;;1.65;;
75379;SDS011;65641;44.714;37.756;2023-07-31T01:20:30;1.90;;;1.33;;
75379;SDS011;65641;44.714;37.756;2023-07-31T01:26:12;2.08;;;1.67;;
75379;SDS011;65641;44.714;37.756;2023-07-31T01:26:56;2.22;;;1.60;;
75379;SDS011;65641;44.714;37.756;2023-07-31T01:28:11;1.90;;;1.52;;
75379;SDS011;65641;44.714;37.756;2023-07-31T01:29:23;1.88;;;1.58;;
75379;SDS011;65641;44.714;37.756;2023-07-31T01:30:47;2.35;;;1.30;;
75379;SDS011;65641;44.714;37.756;2023-07-31T01:31:51;2.42;;;1.60;;
75379;SDS011;65641;44.714;37.756;2023-07-31T01:32:58;1.67;;;1.40;;
75379;SDS011;65641;44.714;37.756;2023-07-31T01:34:02;2.08;;;1.60;;
75379;SDS011;65641;44.714;37.756;2023-07-31T01:35:06;2.20;;;1.40;;
75379;SDS011;65641;44.714;37.756;2023-07-31T01:36:11;2.22;;;1.40;;
75379;SDS011;65641;44.714;37.756;2023-07-31T01:37:15;2.60;;;1.75;;
75379;SDS011;65641;44.714;37.756;2023-07-31T01:38:21;2.72;;;1.45;;
75379;SDS011;65641;44.714;37.756;2023-07-31T01:39:25;2.22;;;1.52;;
75379;SDS011;65641;44.714;37.756;2023-07-31T01:40:28;2.10;;;1.40;;
75379;SDS011;65641;44.714;37.756;2023-07-31T01:41:32;2.10;;;1.80;;
75379;SDS011;65641;44.714;37.756;2023-07-31T01:42:35;2.00;;;1.40;;
75379;SDS011;65641;44.714;37.756;2023-07-31T01:43:39;2.08;;;1.45;;
75379;SDS011;65641;44.714;37.756;2023-07-31T01:44:42;3.20;;;1.85;;
75379;SDS011;65641;44.714;37.756;2023-07-31T01:45:46;2.80;;;1.50;;
75379;SDS011;65641;44.714;37.756;2023-07-31T01:46:49;1.90;;;1.52;;
75379;SDS011;65641;44.714;37.756;2023-07-31T01:47:53;2.63;;;1.70;;
75379;SDS011;65641;44.714;37.756;2023-07-31T01:48:57;2.95;;;1.80;;
75379;SDS011;65641;44.714;37.756;2023-07-31T01:50:00;1.85;;;1.30;;
75379;SDS011;65641;44.714;37.756;2023-07-31T01:51:05;2.55;;;1.88;;
75379;SDS011;65641;44.714;37.756;2023-07-31T01:52:08;2.20;;;1.45;;
75379;SDS011;65641;44.714;37.756;2023-07-31T01:53:12;1.83;;;1.35;;
75379;SDS011;65641;44.714;37.756;2023-07-31T01:54:16;2.05;;;1.40;;
75379;SDS011;65641;44.714;37.756;2023-07-31T01:55:19;1.90;;;1.58;;
75379;SDS011;65641;44.714;37.756;2023-07-31T01:56:23;2.90;;;1.42;;
75379;SDS011;65641;44.714;37.756;2023-07-31T01:57:26;3.55;;;1.60;;
75379;SDS011;65641;44.714;37.756;2023-07-31T01:58:30;2.40;;;1.40;;
75379;SDS011;65641;44.714;37.756;2023-07-31T01:59:33;2.33;;;1.45;;
75379;SDS011;65641;44.714;37.756;2023-07-31T02:00:37;2.30;;;1.50;;
75379;SDS011;65641;44.714;37.756;2023-07-31T02:01:40;2.05;;;1.42;;
75379;SDS011;65641;44.714;37.756;2023-07-31T02:02:44;2.70;;;1.90;;
75379;SDS011;65641;44.714;37.756;2023-07-31T02:03:48;1.80;;;1.30;;
75379;SDS011;65641;44.714;37.756;2023-07-31T02:04:51;2.35;;;1.63;;
75379;SDS011;65641;44.714;37.756;2023-07-31T02:05:55;2.17;;;1.55;;
75379;SDS011;65641;44.714;37.756;2023-07-31T02:07:00;2.22;;;1.83;;
75379;SDS011;65641;44.714;37.756;2023-07-31T02:08:04;2.05;;;1.70;;
75379;SDS011;65641;44.714;37.756;2023-07-31T02:09:08;2.03;;;1.38;;
75379;SDS011;65641;44.714;37.756;2023-07-31T02:10:12;1.77;;;1.45;;
75379;SDS011;65641;44.714;37.756;2023-07-31T02:11:15;2.33;;;1.63;;
75379;SDS011;65641;44.714;37.756;2023-07-31T02:12:19;1.90;;;1.48;;
75379;SDS011;65641;44.714;37.756;2023-07-31T02:13:22;1.90;;;1.58;;
75379;SDS011;65641;44.714;37.756;2023-07-31T02:14:27;1.90;;;1.10;;
75379;SDS011;65641;44.714;37.756;2023-07-31T02:15:30;2.55;;;1.73;;
75379;SDS011;65641;44.714;37.756;2023-07-31T02:16:35;3.15;;;1.80;;
75379;SDS011;65641;44.714;37.756;2023-07-31T02:17:38;3.75;;;1.92;;
75379;SDS011;65641;44.714;37.756;2023-07-31T02:18:42;1.98;;;1.38;;
75379;SDS011;65641;44.714;37.756;2023-07-31T02:19:45;2.75;;;1.33;;
75379;SDS011;65641;44.714;37.756;2023-07-31T02:20:52;3.17;;;1.67;;
75379;SDS011;65641;44.714;37.756;2023-07-31T02:21:56;2.53;;;1.45;;
75379;SDS011;65641;44.714;37.756;2023-07-31T02:23:00;2.17;;;1.52;;
75379;SDS011;65641;44.714;37.756;2023-07-31T02:24:04;2.10;;;1.60;;
75379;SDS011;65641;44.714;37.756;2023-07-31T02:25:08;2.55;;;1.77;;
75379;SDS011;65641;44.714;37.756;2023-07-31T02:26:11;2.00;;;1.67;;
75379;SDS011;65641;44.714;37.756;2023-07-31T02:27:14;1.67;;;1.50;;
75379;SDS011;65641;44.714;37.756;2023-07-31T02:28:19;2.20;;;1.75;;
75379;SDS011;65641;44.714;37.756;2023-07-31T02:29:23;2.10;;;1.60;;
75379;SDS011;65641;44.714;37.756;2023-07-31T02:30:27;2.47;;;1.60;;
75379;SDS011;65641;44.714;37.756;2023-07-31T02:31:30;2.55;;;1.92;;
75379;SDS011;65641;44.714;37.756;2023-07-31T02:32:34;2.30;;;1.55;;
75379;SDS011;65641;44.714;37.756;2023-07-31T02:33:37;2.20;;;1.70;;
75379;SDS011;65641;44.714;37.756;2023-07-31T02:34:41;1.98;;;1.48;;
75379;SDS011;65641;44.714;37.756;2023-07-31T02:35:45;2.10;;;1.70;;
75379;SDS011;65641;44.714;37.756;2023-07-31T02:36:48;1.88;;;1.40;;
75379;SDS011;65641;44.714;37.756;2023-07-31T02:37:53;1.92;;;1.30;;
75379;SDS011;65641;44.714;37.756;2023-07-31T02:38:56;2.05;;;1.45;;
75379;SDS011;65641;44.714;37.756;2023-07-31T02:40:01;2.65;;;1.95;;
75379;SDS011;65641;44.714;37.756;2023-07-31T02:41:07;2.80;;;1.30;;
75379;SDS011;65641;44.714;37.756;2023-07-31T02:42:11;1.85;;;1.50;;
75379;SDS011;65641;44.714;37.756;2023-07-31T02:43:14;2.00;;;1.73;;
75379;SDS011;65641;44.714;37.756;2023-07-31T02:44:18;2.67;;;1.50;;
75379;SDS011;65641;44.714;37.756;2023-07-31T02:45:23;2.67;;;1.73;;
75379;SDS011;65641;44.714;37.756;2023-07-31T02:46:26;2.58;;;1.73;;
75379;SDS011;65641;44.714;37.756;2023-07-31T02:47:30;2.08;;;1.80;;
75379;SDS011;65641;44.714;37.756;2023-07-31T02:48:33;2.05;;;1.65;;
75379;SDS011;65641;44.714;37.756;2023-07-31T02:49:37;2.33;;;1.52;;
75379;SDS011;65641;44.714;37.756;2023-07-31T02:50:40;2.45;;;1.65;;
75379;SDS011;65641;44.714;37.756;2023-07-31T02:51:44;2.00;;;1.50;;
75379;SDS011;65641;44.714;37.756;2023-07-31T02:52:47;2.30;;;1.85;;
75379;SDS011;65641;44.714;37.756;2023-07-31T02:53:51;2.08;;;1.75;;
75379;SDS011;65641;44.714;37.756;2023-07-31T02:54:54;2.22;;;1.85;;
75379;SDS011;65641;44.714;37.756;2023-07-31T02:55:58;2.38;;;1.88;;
75379;SDS011;65641;44.714;37.756;2023-07-31T02:57:02;2.92;;;1.55;;
75379;SDS011;65641;44.714;37.756;2023-07-31T02:58:05;2.88;;;1.88;;
75379;SDS011;65641;44.714;37.756;2023-07-31T02:59:09;1.92;;;1.60;;
75379;SDS011;65641;44.714;37.756;2023-07-31T03:00:13;2.22;;;1.75;;
75379;SDS011;65641;44.714;37.756;2023-07-31T03:01:16;1.95;;;1.73;;
75379;SDS011;65641;44.714;37.756;2023-07-31T03:02:20;2.05;;;1.60;;
75379;SDS011;65641;44.714;37.756;2023-07-31T03:03:24;2.00;;;1.80;;
75379;SDS011;65641;44.714;37.756;2023-07-31T03:04:28;1.92;;;1.50;;
75379;SDS011;65641;44.714;37.756;2023-07-31T03:05:31;2.42;;;1.45;;
75379;SDS011;65641;44.714;37.756;2023-07-31T03:06:34;1.95;;;1.30;;
75379;SDS011;65641;44.714;37.756;2023-07-31T03:07:38;2.90;;;1.52;;
75379;SDS011;65641;44.714;37.756;2023-07-31T03:08:42;2.30;;;1.70;;
75379;SDS011;65641;44.714;37.756;2023-07-31T03:09:45;2.40;;;1.83;;
75379;SDS011;65641;44.714;37.756;2023-07-31T03:10:50;2.30;;;1.95;;
75379;SDS011;65641;44.714;37.756;2023-07-31T03:11:53;2.20;;;1.30;;
75379;SDS011;65641;44.714;37.756;2023-07-31T03:12:57;2.30;;;1.52;;
75379;SDS011;65641;44.714;37.756;2023-07-31T03:14:00;1.92;;;1.50;;
75379;SDS011;65641;44.714;37.756;2023-07-31T03:15:04;1.98;;;1.63;;
75379;SDS011;65641;44.714;37.756;2023-07-31T03:16:07;2.45;;;1.83;;
75379;SDS011;65641;44.714;37.756;2023-07-31T03:17:12;2.35;;;1.73;;
75379;SDS011;65641;44.714;37.756;2023-07-31T03:18:15;2.20;;;1.60;;
75379;SDS011;65641;44.714;37.756;2023-07-31T03:19:19;2.38;;;1.83;;
75379;SDS011;65641;44.714;37.756;2023-07-31T03:20:22;3.15;;;1.98;;
75379;SDS011;65641;44.714;37.756;2023-07-31T03:21:26;1.95;;;1.55;;
75379;SDS011;65641;44.714;37.756;2023-07-31T03:22:30;3.35;;;1.80;;
75379;SDS011;65641;44.714;37.756;2023-07-31T03:23:33;2.67;;;1.77;;
75379;SDS011;65641;44.714;37.756;2023-07-31T03:24:37;2.55;;;1.83;;
75379;SDS011;65641;44.714;37.756;2023-07-31T03:25:42;2.20;;;1.67;;
75379;SDS011;65641;44.714;37.756;2023-07-31T03:27:03;2.35;;;1.75;;
75379;SDS011;65641;44.714;37.756;2023-07-31T03:28:07;2.45;;;1.70;;
75379;SDS011;65641;44.714;37.756;2023-07-31T03:29:11;2.42;;;1.70;;
75379;SDS011;65641;44.714;37.756;2023-07-31T03:30:15;2.40;;;1.60;;
75379;SDS011;65641;44.714;37.756;2023-07-31T03:31:18;2.20;;;1.60;;
75379;SDS011;65641;44.714;37.756;2023-07-31T03:32:22;4.20;;;1.85;;
75379;SDS011;65641;44.714;37.756;2023-07-31T03:33:26;2.00;;;1.60;;
75379;SDS011;65641;44.714;37.756;2023-07-31T03:34:29;2.10;;;1.58;;
75379;SDS011;65641;44.714;37.756;2023-07-31T03:35:34;2.15;;;1.63;;
75379;SDS011;65641;44.714;37.756;2023-07-31T03:36:38;2.13;;;1.60;;
75379;SDS011;65641;44.714;37.756;2023-07-31T03:37:42;1.98;;;1.17;;
75379;SDS011;65641;44.714;37.756;2023-07-31T03:38:46;2.00;;;1.60;;
75379;SDS011;65641;44.714;37.756;2023-07-31T03:39:49;2.25;;;1.52;;
75379;SDS011;65641;44.714;37.756;2023-07-31T03:40:53;2.35;;;1.70;;
75379;SDS011;65641;44.714;37.756;2023-07-31T03:41:56;1.80;;;1.30;;
75379;SDS011;65641;44.714;37.756;2023-07-31T03:43:00;3.00;;;2.00;;
75379;SDS011;65641;44.714;37.756;2023-07-31T03:44:03;2.90;;;1.92;;
75379;SDS011;65641;44.714;37.756;2023-07-31T03:45:07;3.95;;;1.95;;
75379;SDS011;65641;44.714;37.756;2023-07-31T03:46:11;2.85;;;1.80;;
75379;SDS011;65641;44.714;37.756;2023-07-31T03:47:15;4.30;;;2.25;;
75379;SDS011;65641;44.714;37.756;2023-07-31T03:48:19;3.40;;;1.80;;
75379;SDS011;65641;44.714;37.756;2023-07-31T03:49:23;3.95;;;2.33;;
75379;SDS011;65641;44.714;37.756;2023-07-31T03:50:26;3.25;;;2.03;;
75379;SDS011;65641;44.714;37.756;2023-07-31T03:51:30;4.97;;;2.38;;
75379;SDS011;65641;44.714;37.756;2023-07-31T03:52:33;4.45;;;2.15;;
75379;SDS011;65641;44.714;37.756;2023-07-31T03:53:37;6.32;;;2.75;;
75379;SDS011;65641;44.714;37.756;2023-07-31T03:54:40;5.50;;;2.70;;
75379;SDS011;65641;44.714;37.756;2023-07-31T03:55:44;5.10;;;2.70;;
75379;SDS011;65641;44.714;37.756;2023-07-31T03:56:47;6.03;;;2.65;;
75379;SDS011;65641;44.714;37.756;2023-07-31T03:57:51;5.88;;;2.67;;
75379;SDS011;65641;44.714;37.756;2023-07-31T03:58:54;8.20;;;2.95;;
75379;SDS011;65641;44.714;37.756;2023-07-31T03:59:58;5.45;;;2.78;;
75379;SDS011;65641;44.714;37.756;2023-07-31T04:01:01;5.05;;;2.95;;
75379;SDS011;65641;44.714;37.756;2023-07-31T04:02:05;6.25;;;2.95;;
75379;SDS011;65641;44.714;37.756;2023-07-31T04:03:09;5.50;;;3.50;;
75379;SDS011;65641;44.714;37.756;2023-07-31T04:04:12;6.30;;;3.15;;
75379;SDS011;65641;44.714;37.756;2023-07-31T04:05:16;6.70;;;2.97;;
75379;SDS011;65641;44.714;37.756;2023-07-31T04:06:19;5.43;;;3.00;;
75379;SDS011;65641;44.714;37.756;2023-07-31T04:07:23;5.45;;;3.05;;
75379;SDS011;65641;44.714;37.756;2023-07-31T04:08:26;7.35;;;3.58;;
75379;SDS011;65641;44.714;37.756;2023-07-31T04:09:30;6.72;;;3.40;;
75379;SDS011;65641;44.714;37.756;2023-07-31T04:10:33;8.50;;;3.35;;
75379;SDS011;65641;44.714;37.756;2023-07-31T04:11:37;5.93;;;3.22;;
75379;SDS011;65641;44.714;37.756;2023-07-31T04:12:41;8.07;;;3.60;;
75379;SDS011;65641;44.714;37.756;2023-07-31T04:13:45;6.60;;;3.30;;
75379;SDS011;65641;44.714;37.756;2023-07-31T04:14:49;8.75;;;3.67;;
75379;SDS011;65641;44.714;37.756;2023-07-31T04:15:53;6.85;;;3.28;;
75379;SDS011;65641;44.714;37.756;2023-07-31T04:16:57;7.75;;;3.53;;
75379;SDS011;65641;44.714;37.756;2023-07-31T04:18:00;9.23;;;3.33;;
75379;SDS011;65641;44.714;37.756;2023-07-31T04:19:04;7.47;;;3.22;;
75379;SDS011;65641;44.714;37.756;2023-07-31T04:20:08;8.07;;;3.42;;
75379;SDS011;65641;44.714;37.756;2023-07-31T04:21:12;8.20;;;3.40;;
75379;SDS011;65641;44.714;37.756;2023-07-31T04:22:15;7.40;;;3.55;;
75379;SDS011;65641;44.714;37.756;2023-07-31T04:23:19;7.35;;;3.47;;
75379;SDS011;65641;44.714;37.756;2023-07-31T04:24:22;6.97;;;3.28;;
75379;SDS011;65641;44.714;37.756;2023-07-31T04:25:29;8.18;;;3.13;;
75379;SDS011;65641;44.714;37.756;2023-07-31T04:26:32;7.60;;;3.38;;
75379;SDS011;65641;44.714;37.756;2023-07-31T04:27:35;6.93;;;2.85;;
75379;SDS011;65641;44.714;37.756;2023-07-31T04:28:39;5.97;;;3.80;;
75379;SDS011;65641;44.714;37.756;2023-07-31T04:29:43;8.38;;;3.05;;
75379;SDS011;65641;44.714;37.756;2023-07-31T04:30:48;8.02;;;2.83;;
75379;SDS011;65641;44.714;37.756;2023-07-31T04:31:52;5.72;;;3.30;;
75379;SDS011;65641;44.714;37.756;2023-07-31T04:32:56;8.48;;;3.92;;
75379;SDS011;65641;44.714;37.756;2023-07-31T04:33:59;8.45;;;3.70;;
75379;SDS011;65641;44.714;37.756;2023-07-31T04:35:03;6.97;;;3.42;;
75379;SDS011;65641;44.714;37.756;2023-07-31T04:36:07;7.18;;;3.53;;
75379;SDS011;65641;44.714;37.756;2023-07-31T04:37:10;6.55;;;3.47;;
75379;SDS011;65641;44.714;37.756;2023-07-31T04:38:14;8.70;;;3.60;;
75379;SDS011;65641;44.714;37.756;2023-07-31T04:39:17;7.22;;;3.28;;
75379;SDS011;65641;44.714;37.756;2023-07-31T04:40:21;6.60;;;3.30;;
75379;SDS011;65641;44.714;37.756;2023-07-31T04:41:24;7.22;;;3.33;;
75379;SDS011;65641;44.714;37.756;2023-07-31T04:42:28;8.07;;;3.75;;
75379;SDS011;65641;44.714;37.756;2023-07-31T04:43:31;7.65;;;3.70;;
75379;SDS011;65641;44.714;37.756;2023-07-31T04:44:35;8.95;;;3.80;;
75379;SDS011;65641;44.714;37.756;2023-07-31T04:45:38;7.75;;;3.40;;
75379;SDS011;65641;44.714;37.756;2023-07-31T04:46:42;6.88;;;3.53;;
75379;SDS011;65641;44.714;37.756;2023-07-31T04:47:46;8.50;;;3.53;;
75379;SDS011;65641;44.714;37.756;2023-07-31T04:48:49;6.95;;;3.05;;
75379;SDS011;65641;44.714;37.756;2023-07-31T04:49:53;7.22;;;3.35;;
75379;SDS011;65641;44.714;37.756;2023-07-31T04:50:56;5.90;;;3.22;;
75379;SDS011;65641;44.714;37.756;2023-07-31T04:52:00;6.72;;;3.67;;
75379;SDS011;65641;44.714;37.756;2023-07-31T04:53:03;6.20;;;3.47;;
75379;SDS011;65641;44.714;37.756;2023-07-31T04:54:07;7.57;;;3.47;;
75379;SDS011;65641;44.714;37.756;2023-07-31T04:55:11;8.18;;;3.47;;
75379;SDS011;65641;44.714;37.756;2023-07-31T04:56:14;8.35;;;3.80;;
75379;SDS011;65641;44.714;37.756;2023-07-31T04:57:18;5.13;;;3.10;;
75379;SDS011;65641;44.714;37.756;2023-07-31T04:58:22;6.88;;;3.35;;
75379;SDS011;65641;44.714;37.756;2023-07-31T04:59:26;7.20;;;3.08;;
75379;SDS011;65641;44.714;37.756;2023-07-31T05:00:29;6.75;;;3.22;;
75379;SDS011;65641;44.714;37.756;2023-07-31T05:01:33;7.25;;;3.13;;
75379;SDS011;65641;44.714;37.756;2023-07-31T05:02:36;7.45;;;3.38;;
75379;SDS011;65641;44.714;37.756;2023-07-31T05:03:40;7.28;;;3.45;;
75379;SDS011;65641;44.714;37.756;2023-07-31T05:04:43;6.22;;;3.08;;
75379;SDS011;65641;44.714;37.756;2023-07-31T05:05:47;6.00;;;3.30;;
75379;SDS011;65641;44.714;37.756;2023-07-31T05:06:51;7.00;;;3.53;;
75379;SDS011;65641;44.714;37.756;2023-07-31T05:07:54;6.95;;;3.20;;
75379;SDS011;65641;44.714;37.756;2023-07-31T05:08:58;6.40;;;3.47;;
75379;SDS011;65641;44.714;37.756;2023-07-31T05:10:01;6.50;;;3.55;;
75379;SDS011;65641;44.714;37.756;2023-07-31T05:11:05;7.38;;;3.25;;
75379;SDS011;65641;44.714;37.756;2023-07-31T05:12:08;6.43;;;3.38;;
75379;SDS011;65641;44.714;37.756;2023-07-31T05:13:12;6.25;;;3.58;;
75379;SDS011;65641;44.714;37.756;2023-07-31T05:14:15;7.65;;;3.20;;
75379;SDS011;65641;44.714;37.756;2023-07-31T05:15:19;7.10;;;3.08;;
75379;SDS011;65641;44.714;37.756;2023-07-31T05:16:23;6.15;;;2.80;;
75379;SDS011;65641;44.714;37.756;2023-07-31T05:17:26;7.97;;;3.25;;
75379;SDS011;65641;44.714;37.756;2023-07-31T05:18:30;6.95;;;3.20;;
75379;SDS011;65641;44.714;37.756;2023-07-31T05:19:33;9.10;;;3.47;;
75379;SDS011;65641;44.714;37.756;2023-07-31T05:20:37;6.18;;;3.00;;
75379;SDS011;65641;44.714;37.756;2023-07-31T05:21:40;9.18;;;3.10;;
75379;SDS011;65641;44.714;37.756;2023-07-31T05:22:44;5.88;;;3.38;;
75379;SDS011;65641;44.714;37.756;2023-07-31T05:23:48;6.43;;;3.30;;
75379;SDS011;65641;44.714;37.756;2023-07-31T05:24:52;7.85;;;3.25;;
75379;SDS011;65641;44.714;37.756;2023-07-31T05:26:02;6.43;;;3.25;;
75379;SDS011;65641;44.714;37.756;2023-07-31T05:27:07;6.97;;;3.53;;
75379;SDS011;65641;44.714;37.756;2023-07-31T05:28:12;6.00;;;3.00;;
75379;SDS011;65641;44.714;37.756;2023-07-31T05:29:16;6.07;;;3.00;;
75379;SDS011;65641;44.714;37.756;2023-07-31T05:30:19;4.95;;;3.10;;
75379;SDS011;65641;44.714;37.756;2023-07-31T05:31:24;6.10;;;3.50;;
75379;SDS011;65641;44.714;37.756;2023-07-31T05:32:28;6.90;;;3.53;;
75379;SDS011;65641;44.714;37.756;2023-07-31T05:33:31;5.95;;;2.95;;
75379;SDS011;65641;44.714;37.756;2023-07-31T05:34:35;6.45;;;3.00;;
75379;SDS011;65641;44.714;37.756;2023-07-31T05:35:38;5.95;;;3.08;;
75379;SDS011;65641;44.714;37.756;2023-07-31T05:36:42;5.78;;;2.97;;
75379;SDS011;65641;44.714;37.756;2023-07-31T05:37:46;7.35;;;3.38;;
75379;SDS011;65641;44.714;37.756;2023-07-31T05:38:49;5.75;;;3.13;;
75379;SDS011;65641;44.714;37.756;2023-07-31T05:39:53;5.68;;;3.05;;
75379;SDS011;65641;44.714;37.756;2023-07-31T05:40:57;6.25;;;3.00;;
75379;SDS011;65641;44.714;37.756;2023-07-31T05:42:00;5.45;;;2.63;;
75379;SDS011;65641;44.714;37.756;2023-07-31T05:43:04;5.28;;;3.35;;
75379;SDS011;65641;44.714;37.756;2023-07-31T05:44:09;5.05;;;2.40;;
75379;SDS011;65641;44.714;37.756;2023-07-31T05:45:12;4.15;;;2.85;;
75379;SDS011;65641;44.714;37.756;2023-07-31T05:46:17;6.07;;;2.88;;
75379;SDS011;65641;44.714;37.756;2023-07-31T05:47:20;5.05;;;2.63;;
75379;SDS011;65641;44.714;37.756;2023-07-31T05:48:24;5.57;;;3.13;;
75379;SDS011;65641;44.714;37.756;2023-07-31T05:49:28;5.35;;;3.15;;
75379;SDS011;65641;44.714;37.756;2023-07-31T05:50:31;5.13;;;2.92;;
75379;SDS011;65641;44.714;37.756;2023-07-31T05:51:36;6.25;;;2.95;;
75379;SDS011;65641;44.714;37.756;2023-07-31T05:52:39;6.38;;;3.15;;
75379;SDS011;65641;44.714;37.756;2023-07-31T05:53:43;5.32;;;3.25;;
75379;SDS011;65641;44.714;37.756;2023-07-31T05:54:47;4.93;;;2.75;;
75379;SDS011;65641;44.714;37.756;2023-07-31T05:55:50;6.28;;;3.10;;
75379;SDS011;65641;44.714;37.756;2023-07-31T05:56:54;5.65;;;2.67;;
75379;SDS011;65641;44.714;37.756;2023-07-31T05:57:58;5.38;;;3.10;;
75379;SDS011;65641;44.714;37.756;2023-07-31T05:59:03;4.15;;;2.88;;
75379;SDS011;65641;44.714;37.756;2023-07-31T06:00:08;5.13;;;3.00;;
75379;SDS011;65641;44.714;37.756;2023-07-31T06:01:12;5.00;;;2.63;;
75379;SDS011;65641;44.714;37.756;2023-07-31T06:02:15;4.65;;;2.30;;
75379;SDS011;65641;44.714;37.756;2023-07-31T06:03:19;6.13;;;3.20;;
75379;SDS011;65641;44.714;37.756;2023-07-31T06:04:23;6.55;;;3.05;;
75379;SDS011;65641;44.714;37.756;2023-07-31T06:05:28;3.97;;;2.88;;
75379;SDS011;65641;44.714;37.756;2023-07-31T06:06:33;4.25;;;2.33;;
75379;SDS011;65641;44.714;37.756;2023-07-31T06:07:36;5.03;;;3.08;;
75379;SDS011;65641;44.714;37.756;2023-07-31T06:08:40;5.53;;;3.08;;
75379;SDS011;65641;44.714;37.756;2023-07-31T06:09:44;4.00;;;2.83;;
75379;SDS011;65641;44.714;37.756;2023-07-31T06:10:47;6.32;;;2.92;;
75379;SDS011;65641;44.714;37.756;2023-07-31T06:11:51;4.85;;;2.65;;
75379;SDS011;65641;44.714;37.756;2023-07-31T06:12:55;4.68;;;2.70;;
75379;SDS011;65641;44.714;37.756;2023-07-31T06:14:00;5.07;;;2.90;;
75379;SDS011;65641;44.714;37.756;2023-07-31T06:15:04;4.55;;;2.80;;
75379;SDS011;65641;44.714;37.756;2023-07-31T06:16:09;5.60;;;2.90;;
75379;SDS011;65641;44.714;37.756;2023-07-31T06:17:13;5.22;;;3.38;;
75379;SDS011;65641;44.714;37.756;2023-07-31T06:18:16;4.63;;;2.78;;
75379;SDS011;65641;44.714;37.756;2023-07-31T06:19:20;6.07;;;2.90;;
75379;SDS011;65641;44.714;37.756;2023-07-31T06:20:24;5.22;;;2.80;;
75379;SDS011;65641;44.714;37.756;2023-07-31T06:21:27;4.72;;;2.95;;
75379;SDS011;65641;44.714;37.756;2023-07-31T06:22:31;5.35;;;3.40;;
75379;SDS011;65641;44.714;37.756;2023-07-31T06:23:35;4.50;;;2.90;;
75379;SDS011;65641;44.714;37.756;2023-07-31T06:24:38;4.60;;;3.00;;
75379;SDS011;65641;44.714;37.756;2023-07-31T06:25:42;4.97;;;3.10;;